sensor_id;sensor_type;location;lat;lon;timestamp;temperature;humidity
10889;DHT22;5497;51.388;6.780;2022-07-05T00:00:59;16.00;98.40
10889;DHT22;5497;51.388;6.780;2022-07-05T00:03:27;15.90;98.50
10889;DHT22;5497;51.388;6.780;2022-07-05T00:05:54;15.90;98.80
10889;DHT22;5497;51.388;6.780;2022-07-05T00:08:21;15.90;99.00
10889;DHT22;5497;51.388;6.780;2022-07-05T00:10:47;15.80;99.10
10889;DHT22;5497;51.388;6.780;2022-07-05T00:13:14;15.80;99.30
10889;DHT22;5497;51.388;6.780;2022-07-05T00:15:41;15.80;99.60
10889;DHT22;5497;51.388;6.780;2022-07-05T00:18:08;15.80;99.80
10889;DHT22;5497;51.388;6.780;2022-07-05T00:20:36;15.70;99.90
10889;DHT22;5497;51.388;6.780;2022-07-05T00:23:02;15.70;99.90
10889;DHT22;5497;51.388;6.780;2022-07-05T00:25:29;15.70;99.90
10889;DHT22;5497;51.388;6.780;2022-07-05T00:27:56;15.60;99.90
10889;DHT22;5497;51.388;6.780;2022-07-05T00:30:22;18.70;99.90
10889;DHT22;5497;51.388;6.780;2022-07-05T00:32:50;15.60;99.90
10889;DHT22;5497;51.388;6.780;2022-07-05T00:35:17;15.50;99.90
10889;DHT22;5497;51.388;6.780;2022-07-05T00:37:45;15.50;99.90
10889;DHT22;5497;51.388;6.780;2022-07-05T00:40:11;15.40;99.90
10889;DHT22;5497;51.388;6.780;2022-07-05T00:42:38;15.40;99.90
10889;DHT22;5497;51.388;6.780;2022-07-05T00:45:05;15.40;99.90
10889;DHT22;5497;51.388;6.780;2022-07-05T00:47:32;15.40;99.90
10889;DHT22;5497;51.388;6.780;2022-07-05T00:49:59;15.40;99.90
10889;DHT22;5497;51.388;6.780;2022-07-05T00:52:26;15.40;99.90
10889;DHT22;5497;51.388;6.780;2022-07-05T00:54:54;15.30;99.90
10889;DHT22;5497;51.388;6.780;2022-07-05T00:57:21;15.40;99.90
10889;DHT22;5497;51.388;6.780;2022-07-05T00:59:48;16.10;99.90
10889;DHT22;5497;51.388;6.780;2022-07-05T01:02:14;15.50;99.90
10889;DHT22;5497;51.388;6.780;2022-07-05T01:04:41;15.50;99.90
10889;DHT22;5497;51.388;6.780;2022-07-05T01:07:08;15.50;99.90
10889;DHT22;5497;51.388;6.780;2022-07-05T01:09:34;15.50;99.90
10889;DHT22;5497;51.388;6.780;2022-07-05T01:12:03;15.50;99.90
10889;DHT22;5497;51.388;6.780;2022-07-05T01:14:30;15.50;99.90
10889;DHT22;5497;51.388;6.780;2022-07-05T01:16:57;15.50;99.90
10889;DHT22;5497;51.388;6.780;2022-07-05T01:19:23;15.50;99.90
10889;DHT22;5497;51.388;6.780;2022-07-05T01:21:50;15.50;99.90
10889;DHT22;5497;51.388;6.780;2022-07-05T01:24:18;15.60;99.90
10889;DHT22;5497;51.388;6.780;2022-07-05T01:26:47;15.60;99.90
10889;DHT22;5497;51.388;6.780;2022-07-05T01:29:14;15.60;99.90
10889;DHT22;5497;51.388;6.780;2022-07-05T01:31:40;15.50;99.90
10889;DHT22;5497;51.388;6.780;2022-07-05T01:34:07;15.50;99.90
10889;DHT22;5497;51.388;6.780;2022-07-05T01:36:34;15.40;99.90
10889;DHT22;5497;51.388;6.780;2022-07-05T01:39:02;15.40;99.90
10889;DHT22;5497;51.388;6.780;2022-07-05T01:41:30;15.40;99.90
10889;DHT22;5497;51.388;6.780;2022-07-05T01:43:57;15.30;99.90
10889;DHT22;5497;51.388;6.780;2022-07-05T01:46:24;15.30;99.90
10889;DHT22;5497;51.388;6.780;2022-07-05T01:48:55;15.20;99.90
10889;DHT22;5497;51.388;6.780;2022-07-05T01:51:23;15.20;99.90
10889;DHT22;5497;51.388;6.780;2022-07-05T01:53:52;15.20;99.90
10889;DHT22;5497;51.388;6.780;2022-07-05T01:56:19;15.20;99.90
10889;DHT22;5497;51.388;6.780;2022-07-05T01:58:47;15.20;99.90
10889;DHT22;5497;51.388;6.780;2022-07-05T02:01:14;15.20;99.90
10889;DHT22;5497;51.388;6.780;2022-07-05T02:03:41;15.20;99.90
10889;DHT22;5497;51.388;6.780;2022-07-05T02:06:10;15.20;99.90
10889;DHT22;5497;51.388;6.780;2022-07-05T02:08:36;15.20;99.90
10889;DHT22;5497;51.388;6.780;2022-07-05T02:11:08;15.20;99.90
10889;DHT22;5497;51.388;6.780;2022-07-05T02:13:36;15.20;99.90
10889;DHT22;5497;51.388;6.780;2022-07-05T02:16:05;15.20;99.90
10889;DHT22;5497;51.388;6.780;2022-07-05T02:18:31;15.30;99.90
10889;DHT22;5497;51.388;6.780;2022-07-05T02:20:59;15.30;99.90
10889;DHT22;5497;51.388;6.780;2022-07-05T02:23:25;15.30;99.90
10889;DHT22;5497;51.388;6.780;2022-07-05T02:25:53;15.30;99.90
10889;DHT22;5497;51.388;6.780;2022-07-05T02:28:19;14.80;99.90
10889;DHT22;5497;51.388;6.780;2022-07-05T02:30:49;15.30;99.90
10889;DHT22;5497;51.388;6.780;2022-07-05T02:33:17;15.30;99.90
10889;DHT22;5497;51.388;6.780;2022-07-05T02:35:44;15.20;99.90
10889;DHT22;5497;51.388;6.780;2022-07-05T02:38:11;15.20;99.90
10889;DHT22;5497;51.388;6.780;2022-07-05T02:40:38;15.10;99.90
10889;DHT22;5497;51.388;6.780;2022-07-05T02:43:05;15.10;99.90
10889;DHT22;5497;51.388;6.780;2022-07-05T02:45:32;15.10;99.90
10889;DHT22;5497;51.388;6.780;2022-07-05T02:47:59;15.10;99.90
10889;DHT22;5497;51.388;6.780;2022-07-05T02:50:31;15.10;99.90
10889;DHT22;5497;51.388;6.780;2022-07-05T02:52:58;15.20;99.90
10889;DHT22;5497;51.388;6.780;2022-07-05T02:55:24;15.20;99.90
10889;DHT22;5497;51.388;6.780;2022-07-05T02:57:52;15.20;99.90
10889;DHT22;5497;51.388;6.780;2022-07-05T03:00:19;15.20;99.90
10889;DHT22;5497;51.388;6.780;2022-07-05T03:02:47;15.20;99.90
10889;DHT22;5497;51.388;6.780;2022-07-05T03:05:15;15.10;99.90
10889;DHT22;5497;51.388;6.780;2022-07-05T03:07:51;15.10;99.90
10889;DHT22;5497;51.388;6.780;2022-07-05T03:10:19;15.00;99.90
10889;DHT22;5497;51.388;6.780;2022-07-05T03:12:46;15.00;99.90
10889;DHT22;5497;51.388;6.780;2022-07-05T03:15:14;14.80;99.90
10889;DHT22;5497;51.388;6.780;2022-07-05T03:17:42;14.80;99.90
10889;DHT22;5497;51.388;6.780;2022-07-05T03:20:09;14.80;99.90
10889;DHT22;5497;51.388;6.780;2022-07-05T03:22:36;14.70;99.90
10889;DHT22;5497;51.388;6.780;2022-07-05T03:25:06;14.70;99.90
10889;DHT22;5497;51.388;6.780;2022-07-05T03:27:33;14.60;99.90
10889;DHT22;5497;51.388;6.780;2022-07-05T03:30:00;14.60;99.90
10889;DHT22;5497;51.388;6.780;2022-07-05T03:32:30;14.60;99.90
10889;DHT22;5497;51.388;6.780;2022-07-05T03:34:57;14.50;99.90
10889;DHT22;5497;51.388;6.780;2022-07-05T03:37:24;14.50;99.90
10889;DHT22;5497;51.388;6.780;2022-07-05T03:39:51;14.50;99.90
10889;DHT22;5497;51.388;6.780;2022-07-05T03:42:20;14.40;99.90
10889;DHT22;5497;51.388;6.780;2022-07-05T03:44:47;14.40;99.90
10889;DHT22;5497;51.388;6.780;2022-07-05T03:47:14;14.40;99.90
10889;DHT22;5497;51.388;6.780;2022-07-05T03:49:43;14.50;99.90
10889;DHT22;5497;51.388;6.780;2022-07-05T03:52:09;14.40;99.90
10889;DHT22;5497;51.388;6.780;2022-07-05T03:54:36;14.50;99.90
10889;DHT22;5497;51.388;6.780;2022-07-05T03:57:05;14.50;99.90
10889;DHT22;5497;51.388;6.780;2022-07-05T03:59:33;14.50;99.90
10889;DHT22;5497;51.388;6.780;2022-07-05T04:02:01;14.50;99.90
10889;DHT22;5497;51.388;6.780;2022-07-05T04:04:28;14.50;99.90
10889;DHT22;5497;51.388;6.780;2022-07-05T04:06:55;14.60;99.90
10889;DHT22;5497;51.388;6.780;2022-07-05T04:09:22;14.60;99.90
10889;DHT22;5497;51.388;6.780;2022-07-05T04:11:49;14.70;99.90
10889;DHT22;5497;51.388;6.780;2022-07-05T04:14:16;14.70;99.90
10889;DHT22;5497;51.388;6.780;2022-07-05T04:16:45;14.70;99.90
10889;DHT22;5497;51.388;6.780;2022-07-05T04:19:13;14.70;99.90
10889;DHT22;5497;51.388;6.780;2022-07-05T04:21:39;14.60;99.90
10889;DHT22;5497;51.388;6.780;2022-07-05T04:24:06;14.60;99.90
10889;DHT22;5497;51.388;6.780;2022-07-05T04:26:34;14.60;99.90
10889;DHT22;5497;51.388;6.780;2022-07-05T04:29:01;14.70;99.90
10889;DHT22;5497;51.388;6.780;2022-07-05T04:31:33;14.70;99.90
10889;DHT22;5497;51.388;6.780;2022-07-05T04:34:01;14.80;99.90
10889;DHT22;5497;51.388;6.780;2022-07-05T04:36:31;14.80;99.90
10889;DHT22;5497;51.388;6.780;2022-07-05T04:38:59;14.80;99.90
10889;DHT22;5497;51.388;6.780;2022-07-05T04:41:28;14.90;99.90
10889;DHT22;5497;51.388;6.780;2022-07-05T04:43:55;14.90;99.90
10889;DHT22;5497;51.388;6.780;2022-07-05T04:46:22;14.90;99.90
10889;DHT22;5497;51.388;6.780;2022-07-05T04:48:50;14.90;99.90
10889;DHT22;5497;51.388;6.780;2022-07-05T04:51:19;15.00;99.90
10889;DHT22;5497;51.388;6.780;2022-07-05T04:53:46;15.10;99.90
10889;DHT22;5497;51.388;6.780;2022-07-05T04:56:13;15.10;99.90
10889;DHT22;5497;51.388;6.780;2022-07-05T04:58:39;15.20;99.90
10889;DHT22;5497;51.388;6.780;2022-07-05T05:01:06;15.30;99.90
10889;DHT22;5497;51.388;6.780;2022-07-05T05:03:33;15.40;99.90
10889;DHT22;5497;51.388;6.780;2022-07-05T05:06:00;15.50;99.90
10889;DHT22;5497;51.388;6.780;2022-07-05T05:08:28;15.60;99.90
10889;DHT22;5497;51.388;6.780;2022-07-05T05:10:54;15.70;99.90
10889;DHT22;5497;51.388;6.780;2022-07-05T05:13:21;15.80;99.90
10889;DHT22;5497;51.388;6.780;2022-07-05T05:15:48;16.10;99.90
10889;DHT22;5497;51.388;6.780;2022-07-05T05:18:14;16.10;99.90
10889;DHT22;5497;51.388;6.780;2022-07-05T05:20:43;17.30;99.90
10889;DHT22;5497;51.388;6.780;2022-07-05T05:23:10;16.50;99.90
10889;DHT22;5497;51.388;6.780;2022-07-05T05:25:38;16.60;99.90
10889;DHT22;5497;51.388;6.780;2022-07-05T05:28:05;16.90;99.90
10889;DHT22;5497;51.388;6.780;2022-07-05T05:30:32;17.20;99.90
10889;DHT22;5497;51.388;6.780;2022-07-05T05:32:58;19.30;99.90
10889;DHT22;5497;51.388;6.780;2022-07-05T05:35:25;17.70;99.90
10889;DHT22;5497;51.388;6.780;2022-07-05T05:37:52;20.30;99.90
10889;DHT22;5497;51.388;6.780;2022-07-05T05:40:20;19.60;99.90
10889;DHT22;5497;51.388;6.780;2022-07-05T05:42:48;21.00;99.90
10889;DHT22;5497;51.388;6.780;2022-07-05T05:45:15;24.60;99.90
10889;DHT22;5497;51.388;6.780;2022-07-05T05:47:43;24.70;99.90
10889;DHT22;5497;51.388;6.780;2022-07-05T05:50:10;26.70;99.90
10889;DHT22;5497;51.388;6.780;2022-07-05T05:52:36;28.40;99.90
10889;DHT22;5497;51.388;6.780;2022-07-05T05:55:03;29.10;99.90
10889;DHT22;5497;51.388;6.780;2022-07-05T05:57:31;29.10;99.90
10889;DHT22;5497;51.388;6.780;2022-07-05T05:59:59;29.70;99.90
10889;DHT22;5497;51.388;6.780;2022-07-05T06:02:26;30.70;99.90
10889;DHT22;5497;51.388;6.780;2022-07-05T06:04:52;30.70;99.90
10889;DHT22;5497;51.388;6.780;2022-07-05T06:07:19;30.50;99.90
10889;DHT22;5497;51.388;6.780;2022-07-05T06:09:46;30.40;99.90
10889;DHT22;5497;51.388;6.780;2022-07-05T06:12:13;30.50;99.90
10889;DHT22;5497;51.388;6.780;2022-07-05T06:14:41;30.10;98.60
10889;DHT22;5497;51.388;6.780;2022-07-05T06:17:09;30.10;99.10
10889;DHT22;5497;51.388;6.780;2022-07-05T06:19:35;30.60;97.80
10889;DHT22;5497;51.388;6.780;2022-07-05T06:22:02;31.50;96.20
10889;DHT22;5497;51.388;6.780;2022-07-05T06:24:29;32.50;94.90
10889;DHT22;5497;51.388;6.780;2022-07-05T06:26:56;33.90;94.70
10889;DHT22;5497;51.388;6.780;2022-07-05T06:29:23;34.70;91.70
10889;DHT22;5497;51.388;6.780;2022-07-05T06:31:49;35.00;89.10
10889;DHT22;5497;51.388;6.780;2022-07-05T06:34:17;35.30;83.50
10889;DHT22;5497;51.388;6.780;2022-07-05T06:36:44;36.30;86.30
10889;DHT22;5497;51.388;6.780;2022-07-05T06:39:11;36.90;79.60
10889;DHT22;5497;51.388;6.780;2022-07-05T06:41:38;37.50;75.30
10889;DHT22;5497;51.388;6.780;2022-07-05T06:44:05;37.70;73.60
10889;DHT22;5497;51.388;6.780;2022-07-05T06:46:31;38.00;75.50
10889;DHT22;5497;51.388;6.780;2022-07-05T06:48:58;38.20;69.20
10889;DHT22;5497;51.388;6.780;2022-07-05T06:51:26;38.40;67.10
10889;DHT22;5497;51.388;6.780;2022-07-05T06:53:53;38.70;66.30
10889;DHT22;5497;51.388;6.780;2022-07-05T06:56:20;39.20;67.60
10889;DHT22;5497;51.388;6.780;2022-07-05T06:58:47;39.20;62.00
10889;DHT22;5497;51.388;6.780;2022-07-05T07:01:14;39.30;60.60
10889;DHT22;5497;51.388;6.780;2022-07-05T07:03:41;39.70;59.50
10889;DHT22;5497;51.388;6.780;2022-07-05T07:06:07;40.20;61.60
10889;DHT22;5497;51.388;6.780;2022-07-05T07:08:36;40.30;55.90
10889;DHT22;5497;51.388;6.780;2022-07-05T07:11:20;40.30;55.90
10889;DHT22;5497;51.388;6.780;2022-07-05T07:13:48;39.50;52.60
10889;DHT22;5497;51.388;6.780;2022-07-05T07:16:14;39.20;53.50
10889;DHT22;5497;51.388;6.780;2022-07-05T07:18:41;39.00;51.90
10889;DHT22;5497;51.388;6.780;2022-07-05T07:21:08;38.90;53.20
10889;DHT22;5497;51.388;6.780;2022-07-05T07:23:36;39.10;53.20
10889;DHT22;5497;51.388;6.780;2022-07-05T07:26:03;39.30;54.90
10889;DHT22;5497;51.388;6.780;2022-07-05T07:28:30;39.40;52.20
10889;DHT22;5497;51.388;6.780;2022-07-05T07:30:57;39.30;52.10
10889;DHT22;5497;51.388;6.780;2022-07-05T07:33:24;39.50;51.90
10889;DHT22;5497;51.388;6.780;2022-07-05T07:35:51;39.40;52.30
10889;DHT22;5497;51.388;6.780;2022-07-05T07:38:18;39.40;50.60
10889;DHT22;5497;51.388;6.780;2022-07-05T07:40:47;39.50;50.50
10889;DHT22;5497;51.388;6.780;2022-07-05T07:43:13;39.60;50.60
10889;DHT22;5497;51.388;6.780;2022-07-05T07:45:41;40.10;50.30
10889;DHT22;5497;51.388;6.780;2022-07-05T07:48:08;40.10;48.30
10889;DHT22;5497;51.388;6.780;2022-07-05T07:50:35;40.40;49.20
10889;DHT22;5497;51.388;6.780;2022-07-05T07:53:02;39.70;47.70
10889;DHT22;5497;51.388;6.780;2022-07-05T07:55:29;37.70;49.20
10889;DHT22;5497;51.388;6.780;2022-07-05T07:57:57;37.50;48.40
10889;DHT22;5497;51.388;6.780;2022-07-05T08:00:25;36.10;48.30
10889;DHT22;5497;51.388;6.780;2022-07-05T08:02:52;34.80;49.50
10889;DHT22;5497;51.388;6.780;2022-07-05T08:05:19;32.30;50.80
10889;DHT22;5497;51.388;6.780;2022-07-05T08:07:46;32.20;51.70
10889;DHT22;5497;51.388;6.780;2022-07-05T08:10:12;30.90;52.80
10889;DHT22;5497;51.388;6.780;2022-07-05T08:12:39;29.90;54.30
10889;DHT22;5497;51.388;6.780;2022-07-05T08:15:09;28.70;55.90
10889;DHT22;5497;51.388;6.780;2022-07-05T08:17:36;28.70;56.50
10889;DHT22;5497;51.388;6.780;2022-07-05T08:20:24;28.30;57.40
10889;DHT22;5497;51.388;6.780;2022-07-05T08:23:08;28.10;58.30
10889;DHT22;5497;51.388;6.780;2022-07-05T08:25:35;28.40;58.10
10889;DHT22;5497;51.388;6.780;2022-07-05T08:28:02;28.50;59.20
10889;DHT22;5497;51.388;6.780;2022-07-05T08:30:30;29.00;59.30
10889;DHT22;5497;51.388;6.780;2022-07-05T08:32:57;29.50;58.80
10889;DHT22;5497;51.388;6.780;2022-07-05T08:35:24;29.50;57.40
10889;DHT22;5497;51.388;6.780;2022-07-05T08:37:51;29.50;58.00
10889;DHT22;5497;51.388;6.780;2022-07-05T08:40:22;29.30;58.40
10889;DHT22;5497;51.388;6.780;2022-07-05T08:42:53;29.30;59.30
10889;DHT22;5497;51.388;6.780;2022-07-05T08:45:23;29.30;58.50
10889;DHT22;5497;51.388;6.780;2022-07-05T08:47:53;29.30;58.90
10889;DHT22;5497;51.388;6.780;2022-07-05T08:50:23;29.30;59.10
10889;DHT22;5497;51.388;6.780;2022-07-05T08:52:51;30.50;59.70
10889;DHT22;5497;51.388;6.780;2022-07-05T08:55:19;30.40;58.90
10889;DHT22;5497;51.388;6.780;2022-07-05T08:57:46;30.50;59.30
10889;DHT22;5497;51.388;6.780;2022-07-05T09:00:14;31.00;58.60
10889;DHT22;5497;51.388;6.780;2022-07-05T09:02:41;30.90;57.30
10889;DHT22;5497;51.388;6.780;2022-07-05T09:05:09;30.50;57.00
10889;DHT22;5497;51.388;6.780;2022-07-05T09:07:38;30.10;57.00
10889;DHT22;5497;51.388;6.780;2022-07-05T09:10:07;30.10;57.70
10889;DHT22;5497;51.388;6.780;2022-07-05T09:12:36;29.90;58.80
10889;DHT22;5497;51.388;6.780;2022-07-05T09:15:03;29.80;58.40
10889;DHT22;5497;51.388;6.780;2022-07-05T09:17:31;29.80;58.50
10889;DHT22;5497;51.388;6.780;2022-07-05T09:20:04;29.80;59.10
10889;DHT22;5497;51.388;6.780;2022-07-05T09:22:42;27.90;57.30
10889;DHT22;5497;51.388;6.780;2022-07-05T09:25:13;28.90;58.30
10889;DHT22;5497;51.388;6.780;2022-07-05T09:27:46;28.90;58.80
10889;DHT22;5497;51.388;6.780;2022-07-05T09:30:13;28.70;58.90
10889;DHT22;5497;51.388;6.780;2022-07-05T09:32:57;28.70;59.30
10889;DHT22;5497;51.388;6.780;2022-07-05T09:35:25;29.20;58.80
10889;DHT22;5497;51.388;6.780;2022-07-05T09:37:54;29.30;59.30
10889;DHT22;5497;51.388;6.780;2022-07-05T09:40:20;29.60;59.40
10889;DHT22;5497;51.388;6.780;2022-07-05T09:42:47;29.80;59.10
10889;DHT22;5497;51.388;6.780;2022-07-05T09:45:15;29.90;58.80
10889;DHT22;5497;51.388;6.780;2022-07-05T09:47:47;30.00;59.10
10889;DHT22;5497;51.388;6.780;2022-07-05T09:50:14;30.00;57.80
10889;DHT22;5497;51.388;6.780;2022-07-05T09:52:41;29.90;55.70
10889;DHT22;5497;51.388;6.780;2022-07-05T09:55:10;29.20;54.80
10889;DHT22;5497;51.388;6.780;2022-07-05T09:57:37;29.20;55.20
10889;DHT22;5497;51.388;6.780;2022-07-05T10:00:06;28.50;56.50
10889;DHT22;5497;51.388;6.780;2022-07-05T10:02:36;28.10;57.50
10889;DHT22;5497;51.388;6.780;2022-07-05T10:05:10;28.00;58.00
10889;DHT22;5497;51.388;6.780;2022-07-05T10:07:38;28.10;57.60
10889;DHT22;5497;51.388;6.780;2022-07-05T10:10:06;28.20;58.00
10889;DHT22;5497;51.388;6.780;2022-07-05T10:12:35;28.10;57.90
10889;DHT22;5497;51.388;6.780;2022-07-05T10:15:02;27.90;58.00
10889;DHT22;5497;51.388;6.780;2022-07-05T10:17:29;27.80;58.00
10889;DHT22;5497;51.388;6.780;2022-07-05T10:19:57;27.60;59.00
10889;DHT22;5497;51.388;6.780;2022-07-05T10:22:24;27.30;59.50
10889;DHT22;5497;51.388;6.780;2022-07-05T10:24:53;27.10;60.40
10889;DHT22;5497;51.388;6.780;2022-07-05T10:27:20;26.80;59.70
10889;DHT22;5497;51.388;6.780;2022-07-05T10:29:49;26.60;59.80
10889;DHT22;5497;51.388;6.780;2022-07-05T10:32:18;26.40;61.20
10889;DHT22;5497;51.388;6.780;2022-07-05T10:34:45;26.40;60.50
10889;DHT22;5497;51.388;6.780;2022-07-05T10:37:12;26.30;59.10
10889;DHT22;5497;51.388;6.780;2022-07-05T10:39:39;26.40;60.00
10889;DHT22;5497;51.388;6.780;2022-07-05T10:42:06;26.40;60.30
10889;DHT22;5497;51.388;6.780;2022-07-05T10:44:33;26.50;60.90
10889;DHT22;5497;51.388;6.780;2022-07-05T10:47:08;26.40;60.30
10889;DHT22;5497;51.388;6.780;2022-07-05T10:49:39;26.30;61.80
10889;DHT22;5497;51.388;6.780;2022-07-05T10:52:20;26.70;63.10
10889;DHT22;5497;51.388;6.780;2022-07-05T10:57:29;26.20;62.90
10889;DHT22;5497;51.388;6.780;2022-07-05T11:00:05;26.20;64.20
10889;DHT22;5497;51.388;6.780;2022-07-05T11:02:34;26.20;63.70
10889;DHT22;5497;51.388;6.780;2022-07-05T11:05:00;26.30;63.90
10889;DHT22;5497;51.388;6.780;2022-07-05T11:10:13;26.20;64.20
10889;DHT22;5497;51.388;6.780;2022-07-05T11:12:40;26.20;65.30
10889;DHT22;5497;51.388;6.780;2022-07-05T11:15:07;26.60;64.70
10889;DHT22;5497;51.388;6.780;2022-07-05T11:17:37;26.60;65.30
10889;DHT22;5497;51.388;6.780;2022-07-05T11:20:11;26.60;61.40
10889;DHT22;5497;51.388;6.780;2022-07-05T11:22:39;26.40;59.70
10889;DHT22;5497;51.388;6.780;2022-07-05T11:25:07;25.90;60.50
10889;DHT22;5497;51.388;6.780;2022-07-05T11:27:35;25.90;61.10
10889;DHT22;5497;51.388;6.780;2022-07-05T11:30:02;25.80;61.80
10889;DHT22;5497;51.388;6.780;2022-07-05T11:32:37;25.70;62.50
10889;DHT22;5497;51.388;6.780;2022-07-05T11:35:15;25.70;62.90
10889;DHT22;5497;51.388;6.780;2022-07-05T11:40:40;26.00;64.00
10889;DHT22;5497;51.388;6.780;2022-07-05T11:43:07;26.20;62.70
10889;DHT22;5497;51.388;6.780;2022-07-05T11:45:34;26.40;62.60
10889;DHT22;5497;51.388;6.780;2022-07-05T11:48:03;26.50;63.40
10889;DHT22;5497;51.388;6.780;2022-07-05T11:50:30;26.80;61.60
10889;DHT22;5497;51.388;6.780;2022-07-05T11:52:57;27.00;60.50
10889;DHT22;5497;51.388;6.780;2022-07-05T11:55:25;25.20;57.30
10889;DHT22;5497;51.388;6.780;2022-07-05T11:57:52;27.20;58.50
10889;DHT22;5497;51.388;6.780;2022-07-05T12:00:27;27.20;59.00
10889;DHT22;5497;51.388;6.780;2022-07-05T12:02:53;27.20;58.60
10889;DHT22;5497;51.388;6.780;2022-07-05T12:05:22;26.80;58.60
10889;DHT22;5497;51.388;6.780;2022-07-05T12:07:49;27.30;59.30
10889;DHT22;5497;51.388;6.780;2022-07-05T12:10:16;26.60;59.20
10889;DHT22;5497;51.388;6.780;2022-07-05T12:13:03;26.60;59.50
10889;DHT22;5497;51.388;6.780;2022-07-05T12:15:30;26.80;59.70
10889;DHT22;5497;51.388;6.780;2022-07-05T12:17:57;26.80;59.70
10889;DHT22;5497;51.388;6.780;2022-07-05T12:20:30;27.10;60.00
10889;DHT22;5497;51.388;6.780;2022-07-05T12:22:57;27.30;60.50
10889;DHT22;5497;51.388;6.780;2022-07-05T12:25:26;27.30;60.70
10889;DHT22;5497;51.388;6.780;2022-07-05T12:27:54;27.30;60.70
10889;DHT22;5497;51.388;6.780;2022-07-05T12:30:21;27.30;60.40
10889;DHT22;5497;51.388;6.780;2022-07-05T12:32:55;27.20;60.30
10889;DHT22;5497;51.388;6.780;2022-07-05T12:35:32;27.30;60.90
10889;DHT22;5497;51.388;6.780;2022-07-05T12:38:03;27.30;60.50
10889;DHT22;5497;51.388;6.780;2022-07-05T12:40:30;27.20;60.80
10889;DHT22;5497;51.388;6.780;2022-07-05T12:43:00;27.20;61.30
10889;DHT22;5497;51.388;6.780;2022-07-05T12:45:27;27.20;61.00
10889;DHT22;5497;51.388;6.780;2022-07-05T12:47:55;27.20;61.60
10889;DHT22;5497;51.388;6.780;2022-07-05T12:50:22;27.40;61.50
10889;DHT22;5497;51.388;6.780;2022-07-05T12:53:01;27.50;61.40
10889;DHT22;5497;51.388;6.780;2022-07-05T12:55:50;27.90;61.30
10889;DHT22;5497;51.388;6.780;2022-07-05T12:58:44;27.90;61.30
10889;DHT22;5497;51.388;6.780;2022-07-05T13:01:18;28.30;60.30
10889;DHT22;5497;51.388;6.780;2022-07-05T13:03:55;28.40;60.00
10889;DHT22;5497;51.388;6.780;2022-07-05T13:06:22;28.40;59.70
10889;DHT22;5497;51.388;6.780;2022-07-05T13:08:57;28.40;59.70
10889;DHT22;5497;51.388;6.780;2022-07-05T13:11:30;28.40;58.90
10889;DHT22;5497;51.388;6.780;2022-07-05T13:13:56;28.30;59.10
10889;DHT22;5497;51.388;6.780;2022-07-05T13:16:24;28.10;58.70
10889;DHT22;5497;51.388;6.780;2022-07-05T13:18:51;28.00;59.00
10889;DHT22;5497;51.388;6.780;2022-07-05T13:21:17;28.00;59.30
10889;DHT22;5497;51.388;6.780;2022-07-05T13:23:44;28.10;60.00
10889;DHT22;5497;51.388;6.780;2022-07-05T13:26:12;28.30;59.50
10889;DHT22;5497;51.388;6.780;2022-07-05T13:28:39;26.30;58.80
10889;DHT22;5497;51.388;6.780;2022-07-05T13:31:05;28.20;59.30
10889;DHT22;5497;51.388;6.780;2022-07-05T13:33:32;28.00;59.60
10889;DHT22;5497;51.388;6.780;2022-07-05T13:35:59;28.00;59.80
10889;DHT22;5497;51.388;6.780;2022-07-05T13:38:26;28.00;59.90
10889;DHT22;5497;51.388;6.780;2022-07-05T13:40:52;28.10;59.90
10889;DHT22;5497;51.388;6.780;2022-07-05T13:43:20;28.30;60.70
10889;DHT22;5497;51.388;6.780;2022-07-05T13:45:48;28.10;59.90
10889;DHT22;5497;51.388;6.780;2022-07-05T13:48:15;28.30;60.70
10889;DHT22;5497;51.388;6.780;2022-07-05T13:50:42;28.40;61.00
10889;DHT22;5497;51.388;6.780;2022-07-05T13:53:08;28.20;60.80
10889;DHT22;5497;51.388;6.780;2022-07-05T13:55:36;27.90;60.40
10889;DHT22;5497;51.388;6.780;2022-07-05T13:58:03;27.90;61.10
10889;DHT22;5497;51.388;6.780;2022-07-05T14:00:31;27.70;60.50
10889;DHT22;5497;51.388;6.780;2022-07-05T14:02:58;27.20;61.50
10889;DHT22;5497;51.388;6.780;2022-07-05T14:05:24;26.90;61.30
10889;DHT22;5497;51.388;6.780;2022-07-05T14:07:51;26.80;62.80
10889;DHT22;5497;51.388;6.780;2022-07-05T14:10:20;26.70;63.50
10889;DHT22;5497;51.388;6.780;2022-07-05T14:12:47;26.40;63.30
10889;DHT22;5497;51.388;6.780;2022-07-05T14:15:13;25.80;63.80
10889;DHT22;5497;51.388;6.780;2022-07-05T14:17:42;25.90;64.10
10889;DHT22;5497;51.388;6.780;2022-07-05T14:20:09;25.40;66.30
10889;DHT22;5497;51.388;6.780;2022-07-05T14:22:36;25.40;67.60
10889;DHT22;5497;51.388;6.780;2022-07-05T14:25:03;25.30;68.30
10889;DHT22;5497;51.388;6.780;2022-07-05T14:27:30;25.40;68.70
10889;DHT22;5497;51.388;6.780;2022-07-05T14:29:57;25.70;69.40
10889;DHT22;5497;51.388;6.780;2022-07-05T14:32:24;25.70;68.90
10889;DHT22;5497;51.388;6.780;2022-07-05T14:34:52;25.80;69.30
10889;DHT22;5497;51.388;6.780;2022-07-05T14:37:19;25.90;69.00
10889;DHT22;5497;51.388;6.780;2022-07-05T14:39:48;25.90;69.80
10889;DHT22;5497;51.388;6.780;2022-07-05T14:42:14;26.60;69.40
10889;DHT22;5497;51.388;6.780;2022-07-05T14:44:41;25.80;69.30
10889;DHT22;5497;51.388;6.780;2022-07-05T14:47:12;25.70;68.40
10889;DHT22;5497;51.388;6.780;2022-07-05T14:49:40;25.70;68.80
10889;DHT22;5497;51.388;6.780;2022-07-05T14:52:08;26.00;69.30
10889;DHT22;5497;51.388;6.780;2022-07-05T14:54:34;26.90;68.70
10889;DHT22;5497;51.388;6.780;2022-07-05T14:57:04;27.00;68.20
10889;DHT22;5497;51.388;6.780;2022-07-05T14:59:32;27.50;68.10
10889;DHT22;5497;51.388;6.780;2022-07-05T15:01:59;27.90;67.40
10889;DHT22;5497;51.388;6.780;2022-07-05T15:04:25;28.00;65.90
10889;DHT22;5497;51.388;6.780;2022-07-05T15:06:52;28.10;65.90
10889;DHT22;5497;51.388;6.780;2022-07-05T15:09:20;28.10;65.80
10889;DHT22;5497;51.388;6.780;2022-07-05T15:14:14;27.60;64.60
10889;DHT22;5497;51.388;6.780;2022-07-05T15:16:41;27.20;66.10
10889;DHT22;5497;51.388;6.780;2022-07-05T15:19:08;26.40;66.40
10889;DHT22;5497;51.388;6.780;2022-07-05T15:21:35;26.00;67.40
10889;DHT22;5497;51.388;6.780;2022-07-05T15:24:01;25.90;67.20
10889;DHT22;5497;51.388;6.780;2022-07-05T15:26:33;25.40;68.10
10889;DHT22;5497;51.388;6.780;2022-07-05T15:29:02;25.20;69.40
10889;DHT22;5497;51.388;6.780;2022-07-05T15:31:29;24.90;69.40
10889;DHT22;5497;51.388;6.780;2022-07-05T15:33:56;24.70;70.40
10889;DHT22;5497;51.388;6.780;2022-07-05T15:36:23;24.40;70.20
10889;DHT22;5497;51.388;6.780;2022-07-05T15:38:50;24.20;71.30
10889;DHT22;5497;51.388;6.780;2022-07-05T15:41:31;23.80;71.90
10889;DHT22;5497;51.388;6.780;2022-07-05T15:44:04;23.60;72.00
10889;DHT22;5497;51.388;6.780;2022-07-05T15:46:31;23.50;73.10
10889;DHT22;5497;51.388;6.780;2022-07-05T15:49:20;23.40;73.70
10889;DHT22;5497;51.388;6.780;2022-07-05T15:51:47;23.30;73.80
10889;DHT22;5497;51.388;6.780;2022-07-05T15:54:13;23.20;75.30
10889;DHT22;5497;51.388;6.780;2022-07-05T15:56:40;23.10;75.30
10889;DHT22;5497;51.388;6.780;2022-07-05T16:01:52;23.10;74.90
10889;DHT22;5497;51.388;6.780;2022-07-05T16:04:20;23.20;74.80